createdAt,value
2019-03-21T00:00:07.764Z,3.00
2019-03-21T00:01:07.756Z,3.10
2019-03-21T00:02:07.745Z,3.50
2019-03-21T00:03:07.735Z,2.90
2019-03-21T00:04:07.731Z,3.10
2019-03-21T00:05:07.718Z,3.40
2019-03-21T00:06:07.698Z,2.60
2019-03-21T00:07:07.686Z,2.90
2019-03-21T00:08:07.674Z,2.60
2019-03-21T00:09:07.685Z,3.20
2019-03-21T00:10:07.652Z,3.00
2019-03-21T00:11:07.653Z,2.90
2019-03-21T00:12:07.635Z,2.50
2019-03-21T00:13:07.620Z,2.80
2019-03-21T00:14:07.638Z,3.00
2019-03-21T00:15:07.603Z,2.30
2019-03-21T00:16:07.601Z,2.80
2019-03-21T00:17:07.579Z,2.20
2019-03-21T00:18:07.564Z,2.20
2019-03-21T00:19:07.589Z,2.40
2019-03-21T00:20:07.545Z,2.10
2019-03-21T00:21:07.537Z,2.20
2019-03-21T00:22:07.527Z,2.10
2019-03-21T00:23:07.521Z,2.10
2019-03-21T00:24:07.500Z,1.80
2019-03-21T00:25:07.510Z,2.00
2019-03-21T00:26:07.485Z,2.20
2019-03-21T00:27:07.473Z,2.50
2019-03-21T00:28:07.457Z,2.10
2019-03-21T00:29:07.451Z,2.20
2019-03-21T00:30:07.452Z,2.10
2019-03-21T00:31:07.428Z,2.00
2019-03-21T00:32:07.423Z,2.10
2019-03-21T00:33:07.407Z,2.20
2019-03-21T00:34:07.395Z,2.10
2019-03-21T00:35:07.407Z,2.10
2019-03-21T00:36:07.372Z,2.10
2019-03-21T00:37:07.388Z,2.10
2019-03-21T00:38:07.360Z,2.30
2019-03-21T00:39:07.347Z,1.90
2019-03-21T00:40:07.347Z,2.10
2019-03-21T00:41:07.318Z,2.10
2019-03-21T00:42:07.309Z,2.20
2019-03-21T00:43:07.301Z,2.10
2019-03-21T00:44:17.569Z,2.10
2019-03-21T00:45:08.293Z,2.00
2019-03-21T00:46:07.267Z,2.40
2019-03-21T00:47:07.264Z,2.20
2019-03-21T00:48:07.245Z,2.30
2019-03-21T00:49:07.238Z,2.30
2019-03-21T00:50:07.242Z,2.30
2019-03-21T00:51:07.218Z,2.30
2019-03-21T00:52:07.204Z,2.60
2019-03-21T00:53:07.200Z,2.20
2019-03-21T00:54:07.183Z,2.00
2019-03-21T00:55:07.195Z,2.20
2019-03-21T00:56:07.181Z,2.10
2019-03-21T00:57:07.152Z,2.20
2019-03-21T00:58:07.139Z,2.10
2019-03-21T00:59:07.131Z,1.90
2019-03-21T01:00:07.120Z,2.10
2019-03-21T01:01:07.128Z,2.10
2019-03-21T01:02:07.102Z,2.20
2019-03-21T01:03:07.092Z,2.10
2019-03-21T01:04:07.076Z,2.00
2019-03-21T01:05:07.065Z,2.20
2019-03-21T01:06:07.072Z,2.30
2019-03-21T01:07:07.048Z,2.40
2019-03-21T01:08:07.038Z,2.50
2019-03-21T01:09:07.025Z,2.20
2019-03-21T01:10:07.016Z,2.00
2019-03-21T01:11:07.024Z,2.10
2019-03-21T01:12:06.994Z,2.10
2019-03-21T01:13:06.989Z,1.90
2019-03-21T01:14:06.972Z,2.10
2019-03-21T01:15:06.962Z,2.20
2019-03-21T01:16:06.962Z,2.10
2019-03-21T01:17:06.939Z,2.20
2019-03-21T01:18:06.934Z,2.60
2019-03-21T01:19:06.916Z,2.00
2019-03-21T01:20:06.910Z,2.60
2019-03-21T01:21:06.912Z,2.00
2019-03-21T01:22:06.886Z,2.10
2019-03-21T01:23:06.874Z,2.40
2019-03-21T01:24:06.863Z,2.30
2019-03-21T01:25:06.895Z,2.40
2019-03-21T01:26:06.933Z,2.10
2019-03-21T01:27:07.044Z,2.10
2019-03-21T01:28:06.830Z,1.90
2019-03-21T01:29:06.843Z,2.10
2019-03-21T01:30:06.802Z,2.20
2019-03-21T01:31:06.811Z,2.50
2019-03-21T01:32:06.782Z,2.00
2019-03-21T01:33:06.774Z,2.30
2019-03-21T01:34:06.762Z,2.00
2019-03-21T01:35:06.754Z,2.10
2019-03-21T01:36:06.762Z,2.30
2019-03-21T01:37:06.731Z,2.10
2019-03-21T01:38:06.717Z,2.20
2019-03-21T01:39:06.707Z,2.30
2019-03-21T01:40:06.697Z,2.40
2019-03-21T01:41:06.697Z,2.30
2019-03-21T01:42:06.697Z,2.10
2019-03-21T01:43:06.667Z,2.10
2019-03-21T01:44:06.659Z,2.10
2019-03-21T01:45:06.643Z,2.40
2019-03-21T01:46:06.632Z,2.20
2019-03-21T01:47:06.646Z,2.40
2019-03-21T01:48:06.612Z,2.30
2019-03-21T01:49:06.601Z,2.00
2019-03-21T01:50:06.600Z,2.20
2019-03-21T01:51:06.580Z,2.20
2019-03-21T01:52:06.586Z,2.20
2019-03-21T01:53:06.558Z,2.20
2019-03-21T01:54:06.550Z,2.00
2019-03-21T01:55:06.538Z,2.20
2019-03-21T01:56:06.524Z,2.20
2019-03-21T01:57:06.530Z,2.10
2019-03-21T01:58:06.509Z,2.00
2019-03-21T01:59:06.494Z,1.90
2019-03-21T02:00:06.485Z,2.10
2019-03-21T02:01:08.719Z,2.20
2019-03-21T02:02:06.485Z,2.20
2019-03-21T02:03:06.452Z,2.10
2019-03-21T02:04:06.441Z,2.10
2019-03-21T02:05:06.432Z,2.30
2019-03-21T02:06:06.419Z,2.10
2019-03-21T02:07:06.441Z,2.20
2019-03-21T02:08:06.406Z,2.20
2019-03-21T02:09:06.386Z,2.10
2019-03-21T02:10:06.378Z,2.00
2019-03-21T02:11:06.366Z,2.10
2019-03-21T02:12:06.360Z,1.90
2019-03-21T02:13:06.367Z,1.90
2019-03-21T02:14:06.332Z,2.10
2019-03-21T02:15:06.330Z,2.00
2019-03-21T02:16:06.320Z,2.20
2019-03-21T02:17:06.303Z,2.40
2019-03-21T02:18:06.316Z,2.20
2019-03-21T02:19:06.281Z,2.10
2019-03-21T02:20:06.280Z,2.20
2019-03-21T02:21:06.259Z,2.50
2019-03-21T02:22:06.254Z,2.30
2019-03-21T02:23:06.254Z,2.30
2019-03-21T02:24:06.226Z,2.10
2019-03-21T02:25:06.220Z,2.20
2019-03-21T02:26:06.207Z,2.10
2019-03-21T02:27:06.202Z,2.30
2019-03-21T02:28:06.204Z,1.80
2019-03-21T02:29:06.275Z,2.00
2019-03-21T02:30:06.170Z,2.20
2019-03-21T02:31:06.182Z,2.10
2019-03-21T02:32:06.151Z,2.10
2019-03-21T02:33:06.159Z,2.20
2019-03-21T02:34:06.122Z,2.10
2019-03-21T02:35:06.115Z,2.10
2019-03-21T02:36:06.125Z,2.20
2019-03-21T02:37:06.096Z,2.20
2019-03-21T02:38:06.086Z,2.20
2019-03-21T02:39:06.093Z,2.30
2019-03-21T02:40:06.064Z,2.10
2019-03-21T02:41:06.054Z,2.20
2019-03-21T02:42:06.036Z,2.30
2019-03-21T02:43:06.026Z,2.30
2019-03-21T02:44:06.034Z,2.10
2019-03-21T02:45:09.074Z,2.10
2019-03-21T02:46:05.997Z,2.00
2019-03-21T02:47:05.990Z,2.10
2019-03-21T02:48:05.973Z,2.10
2019-03-21T02:49:05.984Z,2.00
2019-03-21T02:50:05.956Z,2.20
2019-03-21T02:51:05.945Z,2.10
2019-03-21T02:52:05.943Z,2.10
2019-03-21T02:53:05.954Z,2.30
2019-03-21T02:54:05.926Z,1.90
2019-03-21T02:55:05.917Z,2.00
2019-03-21T02:56:05.892Z,1.90
2019-03-21T02:57:05.879Z,2.10
2019-03-21T02:58:05.875Z,2.20
2019-03-21T02:59:05.874Z,2.00
2019-03-21T03:00:05.857Z,2.10
2019-03-21T03:01:05.844Z,2.30
2019-03-21T03:02:05.831Z,2.10
2019-03-21T03:03:05.827Z,2.20
2019-03-21T03:04:05.826Z,2.40
2019-03-21T03:05:05.800Z,2.30
2019-03-21T03:06:05.789Z,2.70
2019-03-21T03:07:05.782Z,2.20
2019-03-21T03:08:05.763Z,2.40
2019-03-21T03:09:05.776Z,2.20
2019-03-21T03:10:05.745Z,2.40
2019-03-21T03:11:05.738Z,2.30
2019-03-21T03:12:05.730Z,2.30
2019-03-21T03:13:05.722Z,2.30
2019-03-21T03:14:05.724Z,2.50
2019-03-21T03:15:05.700Z,2.40
2019-03-21T03:16:05.701Z,2.30
2019-03-21T03:17:05.669Z,1.90
2019-03-21T03:18:05.655Z,2.90
2019-03-21T03:19:05.673Z,2.70
2019-03-21T03:20:05.637Z,2.40
2019-03-21T03:21:05.633Z,2.50
2019-03-21T03:22:05.612Z,2.60
2019-03-21T03:23:05.611Z,2.50
2019-03-21T03:24:05.613Z,2.40
2019-03-21T03:25:05.592Z,2.70
2019-03-21T03:26:05.583Z,2.60
2019-03-21T03:27:05.566Z,2.60
2019-03-21T03:28:05.555Z,2.90
2019-03-21T03:29:05.557Z,2.50
2019-03-21T03:30:05.538Z,2.10
2019-03-21T03:31:05.522Z,2.30
2019-03-21T03:32:05.516Z,2.30
2019-03-21T03:33:05.517Z,2.80
2019-03-21T03:34:05.521Z,2.30
2019-03-21T03:35:05.483Z,2.30
2019-03-21T03:36:05.472Z,2.30
2019-03-21T03:37:05.460Z,2.10
2019-03-21T03:38:05.450Z,2.20
2019-03-21T03:39:05.451Z,2.40
2019-03-21T03:40:05.420Z,2.00
2019-03-21T03:41:05.423Z,2.10
2019-03-21T03:42:05.401Z,2.20
2019-03-21T03:43:05.393Z,2.10
2019-03-21T03:44:05.397Z,2.10
2019-03-21T03:45:05.372Z,2.20
2019-03-21T03:46:05.368Z,2.00
2019-03-21T03:47:05.370Z,2.10
2019-03-21T03:48:05.350Z,2.20
2019-03-21T03:49:05.345Z,2.10
2019-03-21T03:50:05.331Z,1.80
2019-03-21T03:51:05.312Z,2.10
2019-03-21T03:52:05.296Z,2.00
2019-03-21T03:53:05.281Z,2.00
2019-03-21T03:54:05.313Z,2.00
2019-03-21T03:55:05.265Z,2.20
2019-03-21T03:56:05.258Z,1.90
2019-03-21T03:57:05.246Z,1.90
2019-03-21T03:58:05.232Z,1.90
2019-03-21T03:59:05.236Z,1.90
2019-03-21T04:00:05.240Z,1.70
2019-03-21T04:01:05.203Z,1.90
2019-03-21T04:02:05.197Z,2.10
2019-03-21T04:03:05.185Z,1.70
2019-03-21T04:04:05.185Z,2.00
2019-03-21T04:05:05.155Z,2.00
2019-03-21T04:06:05.201Z,2.00
2019-03-21T04:07:05.145Z,2.30
2019-03-21T04:08:05.128Z,1.90
2019-03-21T04:09:05.148Z,2.10
2019-03-21T04:10:05.142Z,2.00
2019-03-21T04:11:05.096Z,2.10
2019-03-21T04:12:05.099Z,2.20
2019-03-21T04:13:05.078Z,2.20
2019-03-21T04:14:05.073Z,1.80
2019-03-21T04:15:05.054Z,2.20
2019-03-21T04:16:05.042Z,1.80
2019-03-21T04:17:05.037Z,2.20
2019-03-21T04:18:05.027Z,2.00
2019-03-21T04:19:05.045Z,2.10
2019-03-21T04:20:04.997Z,2.10
2019-03-21T04:21:04.991Z,2.10
2019-03-21T04:22:04.984Z,2.10
2019-03-21T04:23:04.969Z,2.10
2019-03-21T04:24:04.968Z,1.90
2019-03-21T04:25:04.947Z,1.90
2019-03-21T04:26:04.942Z,2.30
2019-03-21T04:27:04.922Z,2.20
2019-03-21T04:28:04.915Z,2.30
2019-03-21T04:29:04.923Z,1.90
2019-03-21T04:30:04.895Z,1.80
2019-03-21T04:31:04.888Z,1.90
2019-03-21T04:32:04.873Z,2.00
2019-03-21T04:33:04.863Z,2.10
2019-03-21T04:34:04.889Z,2.20
2019-03-21T04:35:04.839Z,2.00
2019-03-21T04:36:04.831Z,2.00
2019-03-21T04:37:04.820Z,2.00
2019-03-21T04:38:04.811Z,1.90
2019-03-21T04:39:04.819Z,2.00
2019-03-21T04:40:04.804Z,2.00
2019-03-21T04:41:04.778Z,2.10
2019-03-21T04:42:04.766Z,2.10
2019-03-21T04:43:04.755Z,2.20
2019-03-21T04:44:04.757Z,2.00
2019-03-21T04:45:04.730Z,1.90
2019-03-21T04:46:04.721Z,1.90
2019-03-21T04:47:04.712Z,2.00
2019-03-21T04:48:04.699Z,2.00
2019-03-21T04:49:04.705Z,1.90
2019-03-21T04:50:04.675Z,1.80
2019-03-21T04:51:04.669Z,2.10
2019-03-21T04:52:04.672Z,2.00
2019-03-21T04:53:04.649Z,1.90
2019-03-21T04:54:04.659Z,1.90
2019-03-21T04:55:04.631Z,2.20
2019-03-21T04:56:04.615Z,2.10
2019-03-21T04:57:04.607Z,2.10
2019-03-21T04:58:04.599Z,2.10
2019-03-21T04:59:04.596Z,2.00
2019-03-21T05:00:04.578Z,2.00
2019-03-21T05:01:04.567Z,2.10
2019-03-21T05:02:04.554Z,2.00
2019-03-21T05:03:04.545Z,2.00
2019-03-21T05:04:04.545Z,1.90
2019-03-21T05:05:04.521Z,2.00
2019-03-21T05:06:04.510Z,2.10
2019-03-21T05:07:04.498Z,2.00
2019-03-21T05:08:04.491Z,1.90
2019-03-21T05:09:04.508Z,2.20
2019-03-21T05:10:04.469Z,2.10
2019-03-21T05:11:04.461Z,2.00
2019-03-21T05:12:04.449Z,2.60
2019-03-21T05:13:04.439Z,2.50
2019-03-21T05:14:04.428Z,2.70
2019-03-21T05:15:04.428Z,2.60
2019-03-21T05:16:14.381Z,2.80
2019-03-21T05:17:05.400Z,2.90
2019-03-21T05:18:04.387Z,3.00
2019-03-21T05:19:04.382Z,3.00
2019-03-21T05:20:04.397Z,3.40
2019-03-21T05:21:04.351Z,2.70
2019-03-21T05:22:04.339Z,3.20
2019-03-21T05:23:04.390Z,3.00
2019-03-21T05:24:04.331Z,3.30
2019-03-21T05:25:04.326Z,3.30
2019-03-21T05:26:04.342Z,2.90
2019-03-21T05:27:04.289Z,3.10
2019-03-21T05:28:04.281Z,2.80
2019-03-21T05:29:04.276Z,3.00
2019-03-21T05:30:04.270Z,3.50
2019-03-21T05:31:04.251Z,4.40
2019-03-21T05:32:04.246Z,4.50
2019-03-21T05:33:04.224Z,3.90
2019-03-21T05:34:04.218Z,3.70
2019-03-21T05:35:04.216Z,4.20
2019-03-21T05:36:04.196Z,4.30
2019-03-21T05:37:04.187Z,4.10
2019-03-21T05:38:04.176Z,4.00
2019-03-21T05:39:04.166Z,4.50
2019-03-21T05:40:04.168Z,4.70
2019-03-21T05:41:04.144Z,4.90
2019-03-21T05:42:04.131Z,4.70
2019-03-21T05:43:04.128Z,5.30
2019-03-21T05:44:04.113Z,4.80
2019-03-21T05:45:04.117Z,5.10
2019-03-21T05:46:04.089Z,5.30
2019-03-21T05:47:04.080Z,5.90
2019-03-21T05:48:04.063Z,5.30
2019-03-21T05:49:04.057Z,5.70
2019-03-21T05:50:04.059Z,5.60
2019-03-21T05:51:04.038Z,6.40
2019-03-21T05:52:04.025Z,7.30
2019-03-21T05:53:04.015Z,7.40
2019-03-21T05:54:04.006Z,7.20
2019-03-21T05:55:04.014Z,6.10
2019-03-21T05:56:03.989Z,7.10
2019-03-21T05:57:03.987Z,7.40
2019-03-21T05:58:03.965Z,8.20
2019-03-21T05:59:03.954Z,7.40
2019-03-21T06:00:03.957Z,8.00
2019-03-21T06:01:03.933Z,7.80
2019-03-21T06:02:03.916Z,7.70
2019-03-21T06:03:03.906Z,7.60
2019-03-21T06:04:03.897Z,7.20
2019-03-21T06:05:03.920Z,7.30
2019-03-21T06:06:03.879Z,7.20
2019-03-21T06:07:03.869Z,7.90
2019-03-21T06:08:03.863Z,7.70
2019-03-21T06:09:03.853Z,7.90
2019-03-21T06:10:03.837Z,8.10
2019-03-21T06:11:03.844Z,8.70
2019-03-21T06:12:04.489Z,11.50
2019-03-21T06:13:04.495Z,11.10
2019-03-21T06:14:04.494Z,11.30
2019-03-21T06:15:04.493Z,11.40
2019-03-21T06:16:03.788Z,11.50
2019-03-21T06:17:03.768Z,12.00
2019-03-21T06:18:03.756Z,11.60
2019-03-21T06:19:03.740Z,12.30
2019-03-21T06:20:04.321Z,12.30
2019-03-21T06:21:03.729Z,11.50
2019-03-21T06:22:03.707Z,12.10
2019-03-21T06:23:03.699Z,12.20
2019-03-21T06:24:03.686Z,12.10
2019-03-21T06:25:03.681Z,12.10
2019-03-21T06:26:03.682Z,12.10
2019-03-21T06:27:14.106Z,12.10
2019-03-21T06:28:04.647Z,11.80
2019-03-21T06:29:03.635Z,12.00
2019-03-21T06:30:03.624Z,11.50
2019-03-21T06:31:03.632Z,11.80
2019-03-21T06:32:03.603Z,11.90
2019-03-21T06:33:03.592Z,12.60
2019-03-21T06:34:03.582Z,11.50
2019-03-21T06:35:03.575Z,11.50
2019-03-21T06:36:03.575Z,12.20
2019-03-21T06:37:03.551Z,11.60
2019-03-21T06:38:03.536Z,11.10
2019-03-21T06:39:03.526Z,11.70
2019-03-21T06:40:03.518Z,10.80
2019-03-21T06:41:03.527Z,11.30
2019-03-21T06:42:03.500Z,13.50
2019-03-21T06:43:03.489Z,14.50
2019-03-21T06:44:03.484Z,14.40
2019-03-21T06:45:03.467Z,13.80
2019-03-21T06:46:03.473Z,12.80
2019-03-21T06:47:03.445Z,12.80
2019-03-21T06:48:03.440Z,13.70
2019-03-21T06:49:03.430Z,13.80
2019-03-21T06:50:03.410Z,13.00
2019-03-21T06:51:03.435Z,12.80
2019-03-21T06:52:03.389Z,13.30
2019-03-21T06:53:03.493Z,12.90
2019-03-21T06:54:03.377Z,13.30
2019-03-21T06:55:03.369Z,12.10
2019-03-21T06:56:03.357Z,12.00
2019-03-21T06:57:03.364Z,12.00
2019-03-21T06:58:03.330Z,11.30
2019-03-21T06:59:03.321Z,11.90
2019-03-21T07:00:03.310Z,11.30
2019-03-21T07:01:03.303Z,11.50
2019-03-21T07:02:03.307Z,10.60
2019-03-21T07:03:03.277Z,10.30
2019-03-21T07:04:07.452Z,10.30
2019-03-21T07:05:03.257Z,10.50
2019-03-21T07:06:03.246Z,9.80
2019-03-21T07:07:07.969Z,10.10
2019-03-21T07:08:04.228Z,9.90
2019-03-21T07:09:03.209Z,9.60
2019-03-21T07:10:03.205Z,9.90
2019-03-21T07:11:03.194Z,9.20
2019-03-21T07:12:03.202Z,9.20
2019-03-21T07:13:03.172Z,9.50
2019-03-21T07:14:03.162Z,9.30
2019-03-21T07:15:04.483Z,9.20
2019-03-21T07:16:03.138Z,9.20
2019-03-21T07:17:03.145Z,9.10
2019-03-21T07:18:03.119Z,8.90
2019-03-21T07:19:03.108Z,9.20
2019-03-21T07:20:03.100Z,9.20
2019-03-21T07:21:03.089Z,8.50
2019-03-21T07:22:03.109Z,8.70
2019-03-21T07:23:03.066Z,8.70
2019-03-21T07:24:03.059Z,8.60
2019-03-21T07:25:03.040Z,9.00
2019-03-21T07:26:03.034Z,8.00
2019-03-21T07:27:03.041Z,8.90
2019-03-21T07:28:03.019Z,7.70
2019-03-21T07:29:02.999Z,8.00
2019-03-21T07:30:02.994Z,7.90
2019-03-21T07:31:02.978Z,7.70
2019-03-21T07:32:03.015Z,7.80
2019-03-21T07:33:02.956Z,8.20
2019-03-21T07:34:02.946Z,8.00
2019-03-21T07:35:02.936Z,8.20
2019-03-21T07:36:02.927Z,7.60
2019-03-21T07:37:02.922Z,7.60
2019-03-21T07:38:02.930Z,7.70
2019-03-21T07:39:02.893Z,8.30
2019-03-21T07:40:02.883Z,7.60
2019-03-21T07:41:02.871Z,7.20
2019-03-21T07:42:02.862Z,7.30
2019-03-21T07:43:02.872Z,7.20
2019-03-21T07:44:02.846Z,7.40
2019-03-21T07:45:02.834Z,7.80
2019-03-21T07:46:02.827Z,7.20
2019-03-21T07:47:12.050Z,7.10
2019-03-21T07:48:05.239Z,7.30
2019-03-21T07:49:02.791Z,7.20
2019-03-21T07:50:02.776Z,7.50
2019-03-21T07:51:02.771Z,7.00
2019-03-21T07:52:02.764Z,7.60
2019-03-21T07:53:02.766Z,7.40
2019-03-21T07:54:02.739Z,7.40
2019-03-21T07:55:02.733Z,7.20
2019-03-21T07:56:02.716Z,6.90
2019-03-21T07:57:02.705Z,7.70
2019-03-21T07:58:02.708Z,7.20
2019-03-21T07:59:02.684Z,7.70
2019-03-21T08:00:02.672Z,7.90
2019-03-21T08:01:02.664Z,7.60
2019-03-21T08:02:02.653Z,7.20
2019-03-21T08:03:02.654Z,7.10
2019-03-21T08:04:03.159Z,7.00
2019-03-21T08:05:02.623Z,7.10
2019-03-21T08:06:02.616Z,7.50
2019-03-21T08:07:02.611Z,6.80
2019-03-21T08:08:02.613Z,6.50
2019-03-21T08:09:02.579Z,7.40
2019-03-21T08:10:02.577Z,6.60
2019-03-21T08:11:02.555Z,7.10
2019-03-21T08:12:02.550Z,6.70
2019-03-21T08:13:02.551Z,6.90
2019-03-21T08:14:02.529Z,6.80
2019-03-21T08:15:02.518Z,6.70
2019-03-21T08:16:02.510Z,6.50
2019-03-21T08:17:02.495Z,7.80
2019-03-21T08:18:02.505Z,7.00
2019-03-21T08:19:02.470Z,6.60
2019-03-21T08:20:02.463Z,6.70
2019-03-21T08:21:02.451Z,6.50
2019-03-21T08:22:02.442Z,6.50
2019-03-21T08:23:02.463Z,6.40
2019-03-21T08:24:02.421Z,6.70
2019-03-21T08:25:02.415Z,6.40
2019-03-21T08:26:02.400Z,6.10
2019-03-21T08:27:02.391Z,6.30
2019-03-21T08:28:02.374Z,6.50
2019-03-21T08:29:02.379Z,5.90
2019-03-21T08:30:02.353Z,6.00
2019-03-21T08:31:02.346Z,6.60
2019-03-21T08:32:02.335Z,6.40
2019-03-21T08:33:03.214Z,6.60
2019-03-21T08:34:02.329Z,7.00
2019-03-21T08:35:02.305Z,6.20
2019-03-21T08:36:02.295Z,7.40
2019-03-21T08:37:02.279Z,7.00
2019-03-21T08:38:02.272Z,7.70
2019-03-21T08:39:02.277Z,6.90
2019-03-21T08:40:02.254Z,6.70
2019-03-21T08:41:02.240Z,7.10
2019-03-21T08:42:02.232Z,7.60
2019-03-21T08:43:02.219Z,7.70
2019-03-21T08:44:02.218Z,6.70
2019-03-21T08:45:02.197Z,6.60
2019-03-21T08:46:02.184Z,7.70
2019-03-21T08:47:02.176Z,7.00
2019-03-21T08:48:02.161Z,7.30
2019-03-21T08:49:02.167Z,6.70
2019-03-21T08:50:02.142Z,6.40
2019-03-21T08:51:08.099Z,7.20
2019-03-21T08:52:03.122Z,6.90
2019-03-21T08:53:02.114Z,8.40
2019-03-21T08:54:02.122Z,7.50
2019-03-21T08:55:02.088Z,5.90
2019-03-21T08:56:02.085Z,6.80
2019-03-21T08:57:02.071Z,6.60
2019-03-21T08:58:02.058Z,7.10
2019-03-21T08:59:02.066Z,6.20
2019-03-21T09:00:02.042Z,6.60
2019-03-21T09:01:02.029Z,6.60
2019-03-21T09:02:02.018Z,6.20
2019-03-21T09:03:02.009Z,6.30
2019-03-21T09:04:02.008Z,6.80
2019-03-21T09:05:02.004Z,5.60
2019-03-21T09:06:01.970Z,5.80
2019-03-21T09:07:01.971Z,5.20
2019-03-21T09:08:01.954Z,6.30
2019-03-21T09:09:01.959Z,5.30
2019-03-21T09:10:01.934Z,5.90
2019-03-21T09:11:01.923Z,5.60
2019-03-21T09:12:01.909Z,5.40
2019-03-21T09:13:01.898Z,5.20
2019-03-21T09:14:01.916Z,6.20
2019-03-21T09:15:01.882Z,5.50
2019-03-21T09:16:01.872Z,6.00
2019-03-21T09:17:01.862Z,5.10
2019-03-21T09:18:01.853Z,5.40
2019-03-21T09:19:01.841Z,5.30
2019-03-21T09:20:01.857Z,5.30
2019-03-21T09:21:01.821Z,5.10
2019-03-21T09:22:01.807Z,5.00
2019-03-21T09:23:01.792Z,5.10
2019-03-21T09:24:01.788Z,5.50
2019-03-21T09:25:04.575Z,5.10
2019-03-21T09:26:01.775Z,5.10
2019-03-21T09:27:01.757Z,5.40
2019-03-21T09:28:02.893Z,5.10
2019-03-21T09:29:01.728Z,4.80
2019-03-21T09:30:01.735Z,5.00
2019-03-21T09:31:01.716Z,4.60
2019-03-21T09:32:01.700Z,4.80
2019-03-21T09:33:01.709Z,5.20
2019-03-21T09:34:01.673Z,5.10
2019-03-21T09:35:01.683Z,4.80
2019-03-21T09:36:01.667Z,4.80
2019-03-21T09:37:04.108Z,4.90
2019-03-21T09:38:01.635Z,4.50
2019-03-21T09:39:01.622Z,4.70
2019-03-21T09:40:01.627Z,4.40
2019-03-21T09:41:01.635Z,5.10
2019-03-21T09:42:01.591Z,4.80
2019-03-21T09:43:03.154Z,5.30
2019-03-21T09:44:01.574Z,4.90
2019-03-21T09:45:01.603Z,4.90
2019-03-21T09:46:01.548Z,4.80
2019-03-21T09:47:01.540Z,4.50
2019-03-21T09:48:01.531Z,4.20
2019-03-21T09:49:01.520Z,4.30
2019-03-21T09:50:01.528Z,4.70
2019-03-21T09:51:01.495Z,4.50
2019-03-21T09:52:01.483Z,4.50
2019-03-21T09:53:01.480Z,4.60
2019-03-21T09:54:09.750Z,4.40
2019-03-21T09:55:02.487Z,4.60
2019-03-21T09:56:01.494Z,4.70
2019-03-21T09:57:01.434Z,4.50
2019-03-21T09:58:01.424Z,4.10
2019-03-21T09:59:01.410Z,4.10
2019-03-21T10:00:01.446Z,4.30
2019-03-21T10:01:01.392Z,4.70
2019-03-21T10:02:01.381Z,4.50
2019-03-21T10:03:01.368Z,4.20
2019-03-21T10:04:01.353Z,4.40
2019-03-21T10:05:01.384Z,4.40
2019-03-21T10:06:01.338Z,4.40
2019-03-21T10:07:01.323Z,4.70
2019-03-21T10:08:01.319Z,4.30
2019-03-21T10:09:01.323Z,4.40
2019-03-21T10:10:01.291Z,4.00
2019-03-21T10:11:01.297Z,4.30
2019-03-21T10:12:01.275Z,4.60
2019-03-21T10:13:01.266Z,4.00
2019-03-21T10:14:01.252Z,4.00
2019-03-21T10:15:01.244Z,4.40
2019-03-21T10:16:01.248Z,4.30
2019-03-21T10:17:01.221Z,4.20
2019-03-21T10:18:01.216Z,4.30
2019-03-21T10:19:01.195Z,4.30
2019-03-21T10:20:01.191Z,4.10
2019-03-21T10:21:01.190Z,4.10
2019-03-21T10:22:01.164Z,4.00
2019-03-21T10:23:01.155Z,3.70
2019-03-21T10:24:01.146Z,3.90
2019-03-21T10:25:01.141Z,4.30
2019-03-21T10:26:01.145Z,3.90
2019-03-21T10:27:01.114Z,4.10
2019-03-21T10:28:01.100Z,4.00
2019-03-21T10:29:01.098Z,3.50
2019-03-21T10:30:01.086Z,3.80
2019-03-21T10:31:01.099Z,4.30
2019-03-21T10:32:01.059Z,3.90
2019-03-21T10:33:01.049Z,3.80
2019-03-21T10:34:01.038Z,4.00
2019-03-21T10:35:01.039Z,3.90
2019-03-21T10:36:01.031Z,3.90
2019-03-21T10:37:01.001Z,4.00
2019-03-21T10:38:00.999Z,3.80
2019-03-21T10:39:00.985Z,3.90
2019-03-21T10:40:00.977Z,4.00
2019-03-21T10:41:00.994Z,4.00
2019-03-21T10:42:00.950Z,3.70
2019-03-21T10:43:00.943Z,4.10
2019-03-21T10:44:00.930Z,3.80
2019-03-21T10:45:00.926Z,3.70
2019-03-21T10:46:00.925Z,3.50
2019-03-21T10:47:00.899Z,3.70
2019-03-21T10:48:00.886Z,3.40
2019-03-21T10:49:00.885Z,3.70
2019-03-21T10:50:00.871Z,4.70
2019-03-21T10:51:00.890Z,4.50
2019-03-21T10:52:00.853Z,3.90
2019-03-21T10:53:00.837Z,4.20
2019-03-21T10:54:00.830Z,4.30
2019-03-21T10:55:00.812Z,4.50
2019-03-21T10:56:00.821Z,4.20
2019-03-21T10:57:00.811Z,3.70
2019-03-21T10:58:00.785Z,4.90
2019-03-21T10:59:00.770Z,4.10
2019-03-21T11:00:01.998Z,4.80
2019-03-21T11:01:00.749Z,3.60
2019-03-21T11:02:07.171Z,4.90
2019-03-21T11:03:01.728Z,4.10
2019-03-21T11:04:00.724Z,4.30
2019-03-21T11:05:00.707Z,4.10
2019-03-21T11:06:00.700Z,4.60
2019-03-21T11:07:00.706Z,3.90
2019-03-21T11:08:00.677Z,4.80
2019-03-21T11:09:00.670Z,4.70
2019-03-21T11:10:00.659Z,3.60
2019-03-21T11:11:00.646Z,5.00
2019-03-21T11:12:00.649Z,4.40
2019-03-21T11:13:00.629Z,3.90
2019-03-21T11:14:00.613Z,3.80
2019-03-21T11:15:00.603Z,4.40
2019-03-21T11:16:00.590Z,3.50
2019-03-21T11:17:00.642Z,4.40
2019-03-21T11:18:00.585Z,4.00
2019-03-21T11:19:00.559Z,3.80
2019-03-21T11:20:00.551Z,3.80
2019-03-21T11:21:00.554Z,4.20
2019-03-21T11:22:06.402Z,3.60
2019-03-21T11:23:01.522Z,3.60
2019-03-21T11:24:00.523Z,3.50
2019-03-21T11:25:00.495Z,4.20
2019-03-21T11:26:00.486Z,3.80
2019-03-21T11:27:00.494Z,3.40
2019-03-21T11:28:00.462Z,3.30
2019-03-21T11:29:00.454Z,3.40
2019-03-21T11:30:00.444Z,3.50
2019-03-21T11:31:00.437Z,3.30
2019-03-21T11:32:00.437Z,3.50
2019-03-21T11:33:00.411Z,3.40
2019-03-21T11:34:00.411Z,3.40
2019-03-21T11:35:00.392Z,3.10
2019-03-21T11:36:00.439Z,3.50
2019-03-21T11:37:00.386Z,3.30
2019-03-21T11:38:00.356Z,3.10
2019-03-21T11:39:00.348Z,3.00
2019-03-21T11:40:00.396Z,3.20
2019-03-21T11:41:00.325Z,2.90
2019-03-21T11:42:00.339Z,3.20
2019-03-21T11:43:00.318Z,3.10
2019-03-21T11:44:00.294Z,3.20
2019-03-21T11:45:00.397Z,3.10
2019-03-21T11:46:00.274Z,3.20
2019-03-21T11:47:00.287Z,2.90
2019-03-21T11:48:00.279Z,3.30
2019-03-21T11:49:00.251Z,3.30
2019-03-21T11:50:00.370Z,3.40
2019-03-21T11:51:00.218Z,3.00
2019-03-21T11:52:00.248Z,2.90
2019-03-21T11:53:00.202Z,3.20
2019-03-21T11:54:00.188Z,3.50
2019-03-21T11:55:00.455Z,3.10
2019-03-21T11:56:00.195Z,2.80
2019-03-21T11:57:00.156Z,3.40
2019-03-21T11:58:00.177Z,2.90
2019-03-21T11:59:00.203Z,2.90
2019-03-21T12:00:00.122Z,3.10
2019-03-21T12:01:00.115Z,2.90
2019-03-21T12:02:00.100Z,3.10
2019-03-21T12:03:00.126Z,3.10
2019-03-21T12:04:00.084Z,3.30
2019-03-21T12:05:00.075Z,3.30
2019-03-21T12:06:00.064Z,3.30
2019-03-21T12:07:00.054Z,2.70
2019-03-21T12:08:00.059Z,3.10
2019-03-21T12:09:00.025Z,3.00
2019-03-21T12:10:00.014Z,3.30
2019-03-21T12:11:00.018Z,3.20
2019-03-21T12:11:59.994Z,3.20
2019-03-21T12:13:00.000Z,3.00
2019-03-21T12:13:59.976Z,3.20
2019-03-21T12:14:59.962Z,3.10
2019-03-21T12:15:59.954Z,2.70
2019-03-21T12:16:59.945Z,2.90
2019-03-21T12:17:59.954Z,2.80
2019-03-21T12:18:59.928Z,2.70
2019-03-21T12:19:59.913Z,2.90
2019-03-21T12:20:59.906Z,3.00
2019-03-21T12:21:59.899Z,2.90
2019-03-21T12:22:59.906Z,2.70
2019-03-21T12:23:59.866Z,3.00
2019-03-21T12:24:59.861Z,2.80
2019-03-21T12:25:59.854Z,3.00
2019-03-21T12:26:59.835Z,2.80
2019-03-21T12:28:01.500Z,2.90
2019-03-21T12:28:59.821Z,2.90
2019-03-21T12:29:59.805Z,3.00
2019-03-21T12:30:59.801Z,2.90
2019-03-21T12:31:59.785Z,3.00
2019-03-21T12:32:59.789Z,3.30
2019-03-21T12:33:59.762Z,2.60
2019-03-21T12:34:59.768Z,3.10
2019-03-21T12:35:59.741Z,3.30
2019-03-21T12:36:59.728Z,2.80
2019-03-21T12:37:59.731Z,2.80
2019-03-21T12:38:59.708Z,2.90
2019-03-21T12:39:59.696Z,2.80
2019-03-21T12:40:59.689Z,2.50
2019-03-21T12:41:59.676Z,2.90
2019-03-21T12:42:59.682Z,2.80
2019-03-21T12:43:59.659Z,2.70
2019-03-21T12:44:59.645Z,2.90
2019-03-21T12:45:59.633Z,3.00
2019-03-21T12:46:59.626Z,3.10
2019-03-21T12:47:59.627Z,2.80
2019-03-21T12:48:59.605Z,2.90
2019-03-21T12:49:59.591Z,3.20
2019-03-21T12:50:59.584Z,3.00
2019-03-21T12:51:59.566Z,2.80
2019-03-21T12:52:59.582Z,3.10
2019-03-21T12:53:59.555Z,2.90
2019-03-21T12:54:59.540Z,2.70
2019-03-21T12:55:59.532Z,2.80
2019-03-21T12:56:59.520Z,2.70
2019-03-21T12:57:59.523Z,3.10
2019-03-21T12:58:59.506Z,3.40
2019-03-21T12:59:59.484Z,2.90
2019-03-21T13:00:59.521Z,3.20
2019-03-21T13:01:59.467Z,3.10
2019-03-21T13:02:59.466Z,2.80
2019-03-21T13:03:59.448Z,3.10
2019-03-21T13:04:59.438Z,3.10
2019-03-21T13:05:59.423Z,3.00
2019-03-21T13:06:59.415Z,3.10
2019-03-21T13:07:59.419Z,3.00
2019-03-21T13:08:59.392Z,3.10
2019-03-21T13:09:59.376Z,3.30
2019-03-21T13:11:00.930Z,3.20
2019-03-21T13:11:59.363Z,3.30
2019-03-21T13:12:59.373Z,3.30
2019-03-21T13:13:59.341Z,3.30
2019-03-21T13:14:59.329Z,4.10
2019-03-21T13:15:59.322Z,3.40